createdAt,value
2022-12-04T00:00:13.296Z,101788.75
2022-12-04T00:02:36.077Z,101788.97
2022-12-04T00:04:58.693Z,101776.59
2022-12-04T00:07:21.132Z,101786.63
2022-12-04T00:09:43.438Z,101775.91
2022-12-04T00:12:05.997Z,101772.28
2022-12-04T00:14:28.339Z,101770.81
2022-12-04T00:16:50.702Z,101768.09
2022-12-04T00:19:13.256Z,101766.84
2022-12-04T00:21:35.554Z,101767.44
2022-12-04T00:23:57.868Z,101765.94
2022-12-04T00:26:25.589Z,101769.69
2022-12-04T00:28:48.070Z,101774.53
2022-12-04T00:31:13.377Z,101779.97
2022-12-04T00:33:36.014Z,101787.81
2022-12-04T00:36:03.358Z,101792.41
2022-12-04T00:38:25.708Z,101796.34
2022-12-04T00:40:52.020Z,101791.75
2022-12-04T00:43:14.324Z,101790.31
2022-12-04T00:45:36.666Z,101786.75
2022-12-04T00:47:59.027Z,101778.81
2022-12-04T00:50:21.500Z,101783.66
2022-12-04T00:52:43.824Z,101782.38
2022-12-04T00:55:06.919Z,101772.91
2022-12-04T00:57:29.240Z,101765.59
2022-12-04T00:59:51.657Z,101767.25
2022-12-04T01:02:14.093Z,101768.09
2022-12-04T01:04:36.423Z,101766.22
2022-12-04T01:07:04.632Z,101769.91
2022-12-04T01:09:27.182Z,101755.47
2022-12-04T01:11:49.493Z,101752.75
2022-12-04T01:14:11.799Z,101754.25
2022-12-04T01:16:36.978Z,101745.25
2022-12-04T01:18:59.560Z,101752.75
2022-12-04T01:21:21.948Z,101739.72
2022-12-04T01:23:44.432Z,101739.13
2022-12-04T01:26:06.733Z,101746.38
2022-12-04T01:28:29.098Z,101753.88
2022-12-04T01:31:04.642Z,101752.56
2022-12-04T01:33:27.652Z,101754.81
2022-12-04T01:35:57.853Z,101750.22
2022-12-04T01:38:20.159Z,101758.75
2022-12-04T01:40:44.766Z,101749.50
2022-12-04T01:43:09.651Z,101742.75
2022-12-04T01:45:50.697Z,101762.44
2022-12-04T01:48:32.177Z,101749.41
2022-12-04T01:51:29.122Z,101738.53
2022-12-04T01:53:57.460Z,101743.13
2022-12-04T01:56:22.605Z,101744.78
2022-12-04T01:58:47.891Z,101739.13
2022-12-04T02:01:10.482Z,101729.66
2022-12-04T02:03:32.836Z,101737.84
2022-12-04T02:05:55.181Z,101736.28
2022-12-04T02:08:17.627Z,101737.94
2022-12-04T02:11:12.527Z,101737.13
2022-12-04T02:14:41.313Z,101731.44
2022-12-04T02:17:13.756Z,101727.06
2022-12-04T02:20:26.683Z,101735.22
2022-12-04T02:23:24.445Z,101724.94
2022-12-04T02:26:23.193Z,101713.56
2022-12-04T02:28:56.200Z,101728.84
2022-12-04T02:31:28.426Z,101714.41
2022-12-04T02:34:07.305Z,101701.63
2022-12-04T02:36:32.327Z,101702.69
2022-12-04T02:39:23.179Z,101702.69
2022-12-04T02:42:16.876Z,101698.91
2022-12-04T02:44:45.580Z,101698.69
2022-12-04T02:47:11.288Z,101699.50
2022-12-04T02:49:39.055Z,101694.28
2022-12-04T02:52:01.564Z,101705.53
2022-12-04T02:54:37.360Z,101701.53
2022-12-04T02:57:00.232Z,101703.41
2022-12-04T02:59:42.882Z,101693.00
2022-12-04T03:02:22.967Z,101685.66
2022-12-04T03:04:45.350Z,101695.84
2022-12-04T03:07:13.493Z,101699.16
2022-12-04T03:10:08.849Z,101686.97
2022-12-04T03:12:41.314Z,101701.88
2022-12-04T03:15:33.141Z,101699.75
2022-12-04T03:18:15.598Z,101697.63
2022-12-04T03:20:37.937Z,101697.50
2022-12-04T03:23:06.635Z,101697.38
2022-12-04T03:25:35.828Z,101699.28
2022-12-04T03:28:01.775Z,101692.78
2022-12-04T03:30:24.343Z,101688.75
2022-12-04T03:32:58.375Z,101696.53
2022-12-04T03:35:57.391Z,101695.28
2022-12-04T03:38:19.595Z,101705.34
2022-12-04T03:40:47.862Z,101702.13
2022-12-04T03:43:51.210Z,101683.53
2022-12-04T03:46:39.930Z,101683.19
2022-12-04T03:49:13.979Z,101677.25
2022-12-04T03:52:06.904Z,101687.69
2022-12-04T03:54:35.542Z,101676.44
2022-12-04T03:57:02.152Z,101677.84
2022-12-04T03:59:30.587Z,101686.84
2022-12-04T04:01:53.067Z,101685.53
2022-12-04T04:04:19.858Z,101676.91
2022-12-04T04:06:48.494Z,101674.75
2022-12-04T04:09:15.968Z,101679.25
2022-12-04T04:11:46.843Z,101674.75
2022-12-04T04:14:32.907Z,101672.66
2022-12-04T04:17:21.031Z,101680.34
2022-12-04T04:20:01.975Z,101672.66
2022-12-04T04:22:43.158Z,101668.38
2022-12-04T04:25:17.582Z,101662.34
2022-12-04T04:27:39.909Z,101676.53
2022-12-04T04:30:02.262Z,101674.66
2022-12-04T04:32:36.716Z,101676.91
2022-12-04T04:35:22.904Z,101673.81
2022-12-04T04:38:21.682Z,101673.47
2022-12-04T04:40:52.471Z,101680.94
2022-12-04T04:43:46.382Z,101688.41
2022-12-04T04:46:33.844Z,101680.81
2022-12-04T04:48:58.797Z,101682.13
2022-12-04T04:51:21.148Z,101681.97
2022-12-04T04:53:50.678Z,101680.72
2022-12-04T04:56:13.121Z,101686.38
2022-12-04T04:58:35.488Z,101683.78
2022-12-04T05:01:11.479Z,101681.50
2022-12-04T05:03:33.987Z,101690.28
2022-12-04T05:05:56.451Z,101702.97
2022-12-04T05:08:18.861Z,101702.38
2022-12-04T05:10:41.208Z,101702.72
2022-12-04T05:13:03.507Z,101705.44
2022-12-04T05:15:26.948Z,101710.19
2022-12-04T05:17:49.272Z,101704.75
2022-12-04T05:20:11.974Z,101711.63
2022-12-04T05:22:36.148Z,101718.72
2022-12-04T05:24:58.692Z,101710.78
2022-12-04T05:27:21.918Z,101704.53
2022-12-04T05:29:44.165Z,101703.81
2022-12-04T05:32:06.501Z,101705.13
2022-12-04T05:34:28.813Z,101700.81
2022-12-04T05:36:51.164Z,101711.25
2022-12-04T05:39:13.920Z,101706.16
2022-12-04T05:41:36.233Z,101706.28
2022-12-04T05:43:58.609Z,101698.00
2022-12-04T05:46:20.983Z,101684.59
2022-12-04T05:48:43.311Z,101684.22
2022-12-04T05:51:09.417Z,101689.69
2022-12-04T05:53:31.711Z,101687.94
2022-12-04T05:56:00.421Z,101690.03
2022-12-04T05:58:22.732Z,101695.50
2022-12-04T06:00:45.049Z,101694.22
2022-12-04T06:03:07.368Z,101694.06
2022-12-04T06:05:29.697Z,101703.91
2022-12-04T06:07:52.028Z,101689.81
2022-12-04T06:10:14.347Z,101694.44
2022-12-04T06:12:36.697Z,101692.19
2022-12-04T06:14:58.982Z,101680.72
2022-12-04T06:17:21.338Z,101694.69
2022-12-04T06:19:43.636Z,101687.56
2022-12-04T06:22:05.949Z,101681.50
2022-12-04T06:24:28.297Z,101679.63
2022-12-04T06:27:25.631Z,101688.88
2022-12-04T06:29:33.212Z,101687.56
2022-12-04T06:31:55.578Z,101678.78
2022-12-04T06:34:18.203Z,101689.09
2022-12-04T06:36:40.572Z,101687.09
2022-12-04T06:39:03.006Z,101693.97
2022-12-04T06:41:25.996Z,101691.50
2022-12-04T06:43:48.903Z,101688.50
2022-12-04T06:46:18.935Z,101692.41
2022-12-04T06:48:41.692Z,101690.41
2022-12-04T06:51:07.681Z,101694.78
2022-12-04T06:53:30.400Z,101694.53
2022-12-04T06:55:52.739Z,101702.13
2022-12-04T06:58:15.042Z,101700.59
2022-12-04T07:00:37.382Z,101718.72
2022-12-04T07:02:59.743Z,101725.72
2022-12-04T07:05:22.055Z,101714.94
2022-12-04T07:07:44.397Z,101705.69
2022-12-04T07:10:07.692Z,101710.06
2022-12-04T07:12:29.929Z,101704.63
2022-12-04T07:14:52.219Z,101701.66
2022-12-04T07:17:14.588Z,101698.13
2022-12-04T07:19:37.467Z,101702.59
2022-12-04T07:21:59.786Z,101714.22
2022-12-04T07:24:22.076Z,101709.81
2022-12-04T07:26:44.446Z,101695.16
2022-12-04T07:29:06.754Z,101688.19
2022-12-04T07:31:29.557Z,101702.75
2022-12-04T07:33:54.105Z,101691.47
2022-12-04T07:36:19.537Z,101688.97
2022-12-04T07:38:42.086Z,101690.53
2022-12-04T07:41:05.498Z,101693.16
2022-12-04T07:43:28.682Z,101697.50
2022-12-04T07:45:51.060Z,101692.69
2022-12-04T07:48:13.447Z,101686.03
2022-12-04T07:50:35.781Z,101686.88
2022-12-04T07:52:58.061Z,101680.94
2022-12-04T07:55:23.266Z,101684.72
2022-12-04T07:57:45.852Z,101670.63
2022-12-04T08:00:09.309Z,101686.38
2022-12-04T08:02:31.621Z,101686.97
2022-12-04T08:04:54.062Z,101690.53
2022-12-04T08:07:16.450Z,101697.53
2022-12-04T08:09:38.808Z,101702.50
2022-12-04T08:12:01.117Z,101702.50
2022-12-04T08:14:23.442Z,101713.03
2022-12-04T08:16:51.047Z,101713.03
2022-12-04T08:19:14.964Z,101708.44
2022-12-04T08:21:37.306Z,101708.53
2022-12-04T08:24:00.339Z,101708.28
2022-12-04T08:26:23.787Z,101709.59
2022-12-04T08:28:46.173Z,101707.00
2022-12-04T08:31:18.021Z,101703.44
2022-12-04T08:33:41.067Z,101702.38
2022-12-04T08:36:07.530Z,101709.00
2022-12-04T08:38:29.857Z,101708.78
2022-12-04T08:40:52.164Z,101710.88
2022-12-04T08:43:14.460Z,101717.44
2022-12-04T08:45:36.759Z,101719.06
2022-12-04T08:47:59.102Z,101719.06
2022-12-04T08:50:21.410Z,101711.97
2022-12-04T08:52:43.718Z,101718.09
2022-12-04T08:55:06.790Z,101721.19
2022-12-04T08:57:29.148Z,101723.56
2022-12-04T08:59:51.424Z,101729.63
2022-12-04T09:01:53.691Z,101723.34
2022-12-04T09:03:56.011Z,101718.94
2022-12-04T09:06:01.471Z,101723.56
2022-12-04T09:08:03.772Z,101724.16
2022-12-04T09:10:06.677Z,101725.34
2022-12-04T09:12:08.652Z,101712.44
2022-12-04T09:14:11.297Z,101720.84
2022-12-04T09:16:19.447Z,101727.47
2022-12-04T09:18:21.408Z,101712.19
2022-12-04T09:20:23.344Z,101714.44
2022-12-04T09:22:25.301Z,101711.25
2022-12-04T09:24:28.207Z,101704.13
2022-12-04T09:26:32.189Z,101691.31
2022-12-04T09:28:34.561Z,101697.84
2022-12-04T09:30:36.561Z,101701.88
2022-12-04T09:32:38.604Z,101695.38
2022-12-04T09:34:40.774Z,101688.94
2022-12-04T09:36:42.910Z,101685.41
2022-12-04T09:38:46.898Z,101692.03
2022-12-04T09:41:24.085Z,101680.66
2022-12-04T09:43:42.533Z,101691.56
2022-12-04T09:45:48.139Z,101684.56
2022-12-04T09:47:53.615Z,101680.66
2022-12-04T09:50:37.333Z,101676.03
2022-12-04T09:52:59.775Z,101692.47
2022-12-04T09:55:03.369Z,101691.69
2022-12-04T09:57:37.652Z,101686.22
2022-12-04T09:59:39.925Z,101684.44
2022-12-04T10:02:29.910Z,101688.81
2022-12-04T10:04:32.279Z,101685.63
2022-12-04T10:07:07.023Z,101696.63
2022-12-04T10:09:32.273Z,101692.81
2022-12-04T10:12:01.904Z,101696.63
2022-12-04T10:15:03.701Z,101696.41
2022-12-04T10:18:09.813Z,101689.50
2022-12-04T10:20:51.835Z,101680.75
2022-12-04T10:23:25.081Z,101670.66
2022-12-04T10:25:27.646Z,101676.13
2022-12-04T10:27:44.744Z,101673.63
2022-12-04T10:29:50.789Z,101672.28
2022-12-04T10:31:55.570Z,101673.38
2022-12-04T10:34:23.711Z,101677.31
2022-12-04T10:36:32.838Z,101677.75
2022-12-04T10:38:47.890Z,101687.13
2022-12-04T10:41:15.273Z,101678.94
2022-12-04T10:43:43.313Z,101676.34
2022-12-04T10:45:45.643Z,101682.09
2022-12-04T10:47:48.843Z,101676.06
2022-12-04T10:49:58.861Z,101676.66
2022-12-04T10:52:01.333Z,101677.47
2022-12-04T10:54:11.669Z,101687.56
2022-12-04T10:56:19.789Z,101688.38
2022-12-04T10:58:22.119Z,101682.09
2022-12-04T11:00:30.127Z,101680.81
2022-12-04T11:02:33.237Z,101675.72
2022-12-04T11:04:36.872Z,101669.41
2022-12-04T11:06:38.984Z,101673.78
2022-12-04T11:08:48.939Z,101679.00
2022-12-04T11:11:02.612Z,101680.34
2022-12-04T11:13:14.995Z,101680.69
2022-12-04T11:15:18.141Z,101676.28
2022-12-04T11:17:20.475Z,101676.50
2022-12-04T11:19:40.381Z,101675.34
2022-12-04T11:21:43.062Z,101682.44
2022-12-04T11:23:51.506Z,101668.44
2022-12-04T11:26:00.524Z,101670.91
2022-12-04T11:28:06.544Z,101672.22
2022-12-04T11:30:13.326Z,101672.81
2022-12-04T11:32:33.228Z,101665.59
2022-12-04T11:34:38.922Z,101666.69
2022-12-04T11:36:41.573Z,101662.88
2022-12-04T11:38:44.099Z,101673.22
2022-12-04T11:40:56.042Z,101661.13
2022-12-04T11:43:17.847Z,101661.13
2022-12-04T11:45:22.800Z,101667.88
2022-12-04T11:47:29.514Z,101662.44
2022-12-04T11:49:32.719Z,101657.25
2022-12-04T11:51:50.110Z,101665.50
2022-12-04T11:54:06.519Z,101656.41
2022-12-04T11:56:31.007Z,101664.59
2022-12-04T11:59:12.680Z,101659.63
2022-12-04T12:01:41.776Z,101658.22
2022-12-04T12:04:25.236Z,101655.13
2022-12-04T12:07:00.427Z,101655.13
2022-12-04T12:09:22.637Z,101653.94
2022-12-04T12:11:52.160Z,101652.28
2022-12-04T12:14:32.258Z,101635.09
2022-12-04T12:16:58.665Z,101643.28
2022-12-04T12:19:18.235Z,101634.88
2022-12-04T12:21:33.887Z,101639.75
2022-12-04T12:24:18.719Z,101631.78
2022-12-04T12:26:21.000Z,101634.03
2022-12-04T12:28:59.486Z,101641.88
2022-12-04T12:31:19.636Z,101646.00
2022-12-04T12:33:28.301Z,101644.22
2022-12-04T12:35:53.420Z,101640.22
2022-12-04T12:38:01.164Z,101633.47
2022-12-04T12:40:14.746Z,101630.72
2022-12-04T12:42:25.767Z,101634.59
2022-12-04T12:44:46.929Z,101635.44
2022-12-04T12:47:12.985Z,101634.88
2022-12-04T12:49:32.462Z,101625.28
2022-12-04T12:51:45.974Z,101616.59
2022-12-04T12:53:51.218Z,101614.09
2022-12-04T12:55:55.725Z,101618.00
2022-12-04T12:58:26.595Z,101619.81
2022-12-04T13:00:28.672Z,101625.03
2022-12-04T13:02:47.017Z,101623.38
2022-12-04T13:04:50.573Z,101632.97
2022-12-04T13:07:24.745Z,101626.59
2022-12-04T13:10:01.936Z,101625.28
2022-12-04T13:12:24.286Z,101615.19
2022-12-04T13:14:49.187Z,101625.28
2022-12-04T13:17:26.695Z,101615.09
2022-12-04T13:19:54.765Z,101621.13
2022-12-04T13:22:51.119Z,101621.94
2022-12-04T13:25:45.438Z,101626.69
2022-12-04T13:28:36.261Z,101623.13
2022-12-04T13:31:13.534Z,101622.63
2022-12-04T13:34:19.364Z,101623.69
2022-12-04T13:37:09.151Z,101616.00
2022-12-04T13:40:19.496Z,101607.25
2022-12-04T13:42:42.327Z,101614.38
2022-12-04T13:45:10.601Z,101618.56
2022-12-04T13:47:34.458Z,101609.06
2022-12-04T13:50:36.353Z,101623.16
2022-12-04T13:52:58.738Z,101633.72
2022-12-04T13:55:37.741Z,101632.31
2022-12-04T13:58:10.606Z,101629.09
2022-12-04T14:00:35.076Z,101629.34
2022-12-04T14:03:24.238Z,101636.44
2022-12-04T14:05:46.663Z,101644.63
2022-12-04T14:08:25.673Z,101639.88
2022-12-04T14:11:12.280Z,101641.31
2022-12-04T14:13:47.853Z,101630.88
2022-12-04T14:16:35.103Z,101627.00
2022-12-04T14:19:01.497Z,101631.63
2022-12-04T14:21:23.911Z,101631.03
2022-12-04T14:23:46.286Z,101636.81
2022-12-04T14:27:10.245Z,101639.66
2022-12-04T14:29:25.980Z,101634.91
2022-12-04T14:31:48.285Z,101644.28
2022-12-04T14:34:31.937Z,101636.69
2022-12-04T14:36:54.943Z,101635.88
2022-12-04T14:39:32.304Z,101634.09
2022-12-04T14:42:12.883Z,101631.47
2022-12-04T14:44:35.228Z,101619.88
2022-12-04T14:47:37.566Z,101626.16
2022-12-04T14:50:40.457Z,101621.53
2022-12-04T14:53:30.417Z,101616.94
2022-12-04T14:56:26.334Z,101618.81
2022-12-04T14:58:48.642Z,101623.91
2022-12-04T15:01:29.383Z,101632.66
2022-12-04T15:03:56.039Z,101627.34
2022-12-04T15:06:29.436Z,101626.88
2022-12-04T15:09:22.258Z,101622.50
2022-12-04T15:12:13.510Z,101617.72
2022-12-04T15:14:43.089Z,101625.31
2022-12-04T15:17:05.491Z,101620.34
2022-12-04T15:19:27.908Z,101619.31
2022-12-04T15:21:50.312Z,101620.13
2022-12-04T15:24:24.267Z,101632.31
2022-12-04T15:26:47.665Z,101623.56
2022-12-04T15:29:17.324Z,101623.78
2022-12-04T15:31:47.114Z,101616.44
2022-12-04T15:34:17.634Z,101615.63
2022-12-04T15:36:52.060Z,101615.88
2022-12-04T15:39:20.741Z,101612.66
2022-12-04T15:41:43.107Z,101624.28
2022-12-04T15:44:34.584Z,101620.63
2022-12-04T15:47:00.193Z,101616.25
2022-12-04T15:49:34.215Z,101614.59
2022-12-04T15:52:16.980Z,101602.03
2022-12-04T15:55:03.185Z,101610.81
2022-12-04T15:57:40.586Z,101609.16
2022-12-04T16:00:08.203Z,101611.59
2022-12-04T16:02:41.678Z,101617.91
2022-12-04T16:05:13.200Z,101609.72
2022-12-04T16:07:35.751Z,101613.97
2022-12-04T16:10:04.075Z,101620.25
2022-12-04T16:12:31.488Z,101617.53
2022-12-04T16:14:55.464Z,101614.59
2022-12-04T16:17:18.609Z,101620.03
2022-12-04T16:19:41.534Z,101627.97
2022-12-04T16:22:10.399Z,101625.13
2022-12-04T16:24:32.711Z,101631.41
2022-12-04T16:27:00.394Z,101625.13
2022-12-04T16:29:23.583Z,101629.75
2022-12-04T16:31:46.280Z,101622.41
2022-12-04T16:34:11.494Z,101624.78
2022-12-04T16:36:34.153Z,101623.72
2022-12-04T16:38:56.689Z,101622.41
2022-12-04T16:41:19.676Z,101616.72
2022-12-04T16:43:42.011Z,101630.81
2022-12-04T16:46:04.468Z,101640.56
2022-12-04T16:48:27.629Z,101641.38
2022-12-04T16:50:49.990Z,101642.44
2022-12-04T16:53:20.492Z,101639.47
2022-12-04T16:55:46.434Z,101646.56
2022-12-04T16:58:08.728Z,101638.66
2022-12-04T17:00:31.073Z,101639.13
2022-12-04T17:02:53.398Z,101646.47
2022-12-04T17:05:24.872Z,101644.34
2022-12-04T17:07:47.282Z,101638.88
2022-12-04T17:10:09.925Z,101644.59
2022-12-04T17:12:32.215Z,101648.72
2022-12-04T17:14:54.805Z,101655.47
2022-12-04T17:17:17.396Z,101648.38
2022-12-04T17:19:40.012Z,101654.53
2022-12-04T17:22:02.386Z,101650.97
2022-12-04T17:24:24.693Z,101644.94
2022-12-04T17:26:35.462Z,101652.28
2022-12-04T17:28:37.647Z,101641.38
2022-12-04T17:30:39.631Z,101654.78
2022-12-04T17:32:41.754Z,101657.00
2022-12-04T17:34:44.246Z,101659.75
2022-12-04T17:36:46.536Z,101660.81
2022-12-04T17:38:52.246Z,101668.13
2022-12-04T17:41:00.082Z,101667.06
2022-12-04T17:43:02.313Z,101668.13
2022-12-04T17:45:05.201Z,101670.88
2022-12-04T17:47:07.748Z,101675.34
2022-12-04T17:49:10.069Z,101673.72
2022-12-04T17:51:15.218Z,101664.34
2022-12-04T17:53:17.479Z,101672.88
2022-12-04T17:55:19.799Z,101668.13
2022-12-04T17:57:24.732Z,101662.56
2022-12-04T17:59:27.243Z,101668.84
2022-12-04T18:01:29.754Z,101677.59
2022-12-04T18:03:32.409Z,101669.81
2022-12-04T18:05:35.019Z,101674.19
2022-12-04T18:07:37.331Z,101664.34
2022-12-04T18:09:39.755Z,101661.63
2022-12-04T18:11:44.611Z,101654.28
2022-12-04T18:13:54.463Z,101661.16
2022-12-04T18:15:56.644Z,101666.81
2022-12-04T18:17:58.649Z,101673.47
2022-12-04T18:20:04.483Z,101670.16
2022-12-04T18:22:07.169Z,101662.81
2022-12-04T18:24:09.647Z,101665.91
2022-12-04T18:26:14.294Z,101659.63
2022-12-04T18:28:16.606Z,101655.34
2022-12-04T18:30:18.801Z,101662.09
2022-12-04T18:32:21.185Z,101667.78
2022-12-04T18:34:23.660Z,101656.28
2022-12-04T18:36:28.799Z,101656.53
2022-12-04T18:38:32.030Z,101658.44
2022-12-04T18:40:37.129Z,101673.47
2022-12-04T18:42:39.267Z,101666.25
2022-12-04T18:44:41.972Z,101670.03
2022-12-04T18:46:47.298Z,101669.81
2022-12-04T18:48:52.601Z,101673.94
2022-12-04T18:50:55.857Z,101679.75
2022-12-04T18:53:01.167Z,101681.41
2022-12-04T18:55:04.517Z,101674.19
2022-12-04T18:57:08.342Z,101680.81
2022-12-04T18:59:14.854Z,101682.94
2022-12-04T19:01:18.991Z,101677.50
2022-12-04T19:03:21.186Z,101670.63
2022-12-04T19:05:23.279Z,101677.28
2022-12-04T19:07:28.119Z,101665.06
2022-12-04T19:11:52.972Z,101682.25
2022-12-04T19:13:56.199Z,101685.19
2022-12-04T19:15:58.245Z,101671.84
2022-12-04T19:18:00.359Z,101683.78
2022-12-04T19:20:05.708Z,101682.72
2022-12-04T19:22:07.819Z,101689.59
2022-12-04T19:24:10.513Z,101697.78
2022-12-04T19:26:12.989Z,101693.94
2022-12-04T19:28:15.184Z,101698.34
2022-12-04T19:30:17.767Z,101690.66
2022-12-04T19:32:20.146Z,101688.50
2022-12-04T19:34:22.561Z,101701.06
2022-12-04T19:36:25.933Z,101696.19
2022-12-04T19:38:28.176Z,101695.63
2022-12-04T19:40:30.176Z,101696.94
2022-12-04T19:42:32.422Z,101697.28
2022-12-04T19:44:50.268Z,101703.31
2022-12-04T19:46:52.395Z,101697.88
2022-12-04T19:48:58.139Z,101699.28
2022-12-04T19:51:05.472Z,101696.34
2022-12-04T19:53:07.505Z,101697.16
2022-12-04T19:55:09.665Z,101690.41
2022-12-04T19:57:11.719Z,101694.19
2022-12-04T19:59:13.951Z,101695.84
2022-12-04T20:01:18.052Z,101688.75
2022-12-04T20:03:20.134Z,101696.91
2022-12-04T20:05:22.813Z,101687.91
2022-12-04T20:07:24.902Z,101679.28
2022-12-04T20:09:27.512Z,101684.25
2022-12-04T20:11:32.202Z,101683.19
2022-12-04T20:13:36.829Z,101691.47
2022-12-04T20:15:40.295Z,101682.56
2022-12-04T20:17:42.344Z,101683.19
2022-12-04T20:19:44.406Z,101683.19
2022-12-04T20:21:46.710Z,101685.66
2022-12-04T20:23:50.689Z,101680.94
2022-12-04T20:25:52.757Z,101679.16
2022-12-04T20:27:55.379Z,101693.00
2022-12-04T20:29:57.613Z,101678.44
2022-12-04T20:31:59.819Z,101679.28
2022-12-04T20:34:05.466Z,101680.94
2022-12-04T20:36:09.477Z,101690.75
2022-12-04T20:38:13.500Z,101688.28
2022-12-04T20:40:16.274Z,101678.22
2022-12-04T20:42:19.261Z,101678.81
2022-12-04T20:44:21.479Z,101686.38
2022-12-04T20:46:31.728Z,101685.78
2022-12-04T20:48:34.203Z,101691.22
2022-12-04T20:50:36.445Z,101690.66
2022-12-04T20:52:38.857Z,101698.81
2022-12-04T20:54:41.858Z,101693.84
2022-12-04T20:56:44.469Z,101702.03
2022-12-04T20:58:46.915Z,101697.41
2022-12-04T21:00:49.705Z,101694.06
2022-12-04T21:02:52.702Z,101689.94
2022-12-04T21:04:55.475Z,101693.84
2022-12-04T21:06:59.199Z,101684.25
2022-12-04T21:09:05.956Z,101690.28
2022-12-04T21:11:08.231Z,101695.16
2022-12-04T21:13:29.205Z,101702.03
2022-12-04T21:15:49.892Z,101699.88
2022-12-04T21:17:52.883Z,101704.75
2022-12-04T21:19:55.893Z,101698.72
2022-12-04T21:21:58.825Z,101691.59
2022-12-04T21:24:00.973Z,101692.66
2022-12-04T21:26:04.006Z,101701.81
2022-12-04T21:28:06.594Z,101708.06
2022-12-04T21:30:09.455Z,101704.28
2022-12-04T21:32:12.196Z,101697.41
2022-12-04T21:34:16.909Z,101708.31
2022-12-04T21:36:19.893Z,101712.09
2022-12-04T21:38:22.216Z,101713.28
2022-12-04T21:40:24.853Z,101701.19
2022-12-04T21:42:34.898Z,101704.75
2022-12-04T21:44:37.027Z,101697.16
2022-12-04T21:46:40.182Z,101695.25
2022-12-04T21:48:42.775Z,101698.25
2022-12-04T21:50:45.403Z,101689.22
2022-12-04T21:52:47.636Z,101692.78
2022-12-04T21:54:53.859Z,101690.06
2022-12-04T21:56:56.908Z,101703.22
2022-12-04T21:58:59.496Z,101703.78
2022-12-04T22:01:12.492Z,101700.50
2022-12-04T22:03:15.248Z,101690.44
2022-12-04T22:05:17.739Z,101689.69
2022-12-04T22:07:22.045Z,101685.09
2022-12-04T22:09:26.099Z,101684.50
2022-12-04T22:11:28.116Z,101673.94
2022-12-04T22:13:30.209Z,101665.75
2022-12-04T22:15:39.149Z,101674.66
2022-12-04T22:17:59.668Z,101675.72
2022-12-04T22:20:20.226Z,101672.16
2022-12-04T22:22:42.549Z,101656.63
2022-12-04T22:25:05.199Z,101655.81
2022-12-04T22:27:27.505Z,101655.59
2022-12-04T22:31:52.049Z,101652.59
2022-12-04T22:33:55.287Z,101657.84
2022-12-04T22:36:05.630Z,101654.84
2022-12-04T22:38:07.627Z,101656.03
2022-12-04T22:40:10.674Z,101653.31
2022-12-04T22:42:31.477Z,101641.38
2022-12-04T22:44:52.992Z,101629.06
2022-12-04T22:47:15.239Z,101625.50
2022-12-04T22:49:37.734Z,101623.59
2022-12-04T22:52:00.052Z,101635.34
2022-12-04T22:54:22.373Z,101617.91
2022-12-04T22:56:44.714Z,101609.50
2022-12-04T22:59:07.025Z,101611.88
2022-12-04T23:01:31.872Z,101622.88
2022-12-04T23:03:54.442Z,101619.09
2022-12-04T23:06:18.051Z,101618.59
2022-12-04T23:08:41.219Z,101612.09
2022-12-04T23:11:09.875Z,101622.16
2022-12-04T23:13:32.361Z,101621.91
2022-12-04T23:15:54.665Z,101612.09
2022-12-04T23:18:16.989Z,101622.50
2022-12-04T23:20:39.317Z,101615.03
2022-12-04T23:23:01.680Z,101625.84
2022-12-04T23:25:23.991Z,101627.97
2022-12-04T23:27:46.310Z,101631.28
2022-12-04T23:30:09.386Z,101636.97
2022-12-04T23:32:31.806Z,101628.44
2022-12-04T23:34:54.219Z,101626.91
2022-12-04T23:37:16.589Z,101625.00
2022-12-04T23:39:38.893Z,101645.03
2022-12-04T23:42:01.205Z,101643.84
2022-12-04T23:44:23.510Z,101644.09
2022-12-04T23:46:45.919Z,101647.63
2022-12-04T23:49:08.301Z,101633.91
2022-12-04T23:51:30.647Z,101636.16
2022-12-04T23:53:53.024Z,101636.75
2022-12-04T23:56:21.318Z,101639.13
2022-12-04T23:58:44.634Z,101638.16
